sensor_id;sensor_type;location;lat;lon;timestamp;P1;durP1;ratioP1;P2;durP2;ratioP2
20161;SDS011;51382;53.180;15.414;2024-01-30T00:11:31;83.00;;;29.10;;
20161;SDS011;51382;53.180;15.414;2024-01-30T00:26:44;84.60;;;30.20;;
20161;SDS011;51382;53.180;15.414;2024-01-30T00:41:55;67.40;;;23.50;;
20161;SDS011;51382;53.180;15.414;2024-01-30T00:57:07;76.00;;;25.10;;
20161;SDS011;51382;53.180;15.414;2024-01-30T01:12:19;63.70;;;19.40;;
20161;SDS011;51382;53.180;15.414;2024-01-30T01:27:30;51.40;;;15.40;;
20161;SDS011;51382;53.180;15.414;2024-01-30T01:42:42;67.30;;;17.70;;
20161;SDS011;51382;53.180;15.414;2024-01-30T01:57:54;123.30;;;33.10;;
20161;SDS011;51382;53.180;15.414;2024-01-30T02:13:06;89.00;;;22.40;;
20161;SDS011;51382;53.180;15.414;2024-01-30T02:28:18;58.80;;;17.30;;
20161;SDS011;51382;53.180;15.414;2024-01-30T02:43:30;54.50;;;15.70;;
20161;SDS011;51382;53.180;15.414;2024-01-30T02:58:41;51.90;;;14.80;;
20161;SDS011;51382;53.180;15.414;2024-01-30T03:13:53;55.80;;;15.40;;
20161;SDS011;51382;53.180;15.414;2024-01-30T03:29:04;55.90;;;13.60;;
20161;SDS011;51382;53.180;15.414;2024-01-30T03:44:15;51.60;;;12.90;;
20161;SDS011;51382;53.180;15.414;2024-01-30T03:59:27;51.30;;;12.90;;
20161;SDS011;51382;53.180;15.414;2024-01-30T04:14:39;50.90;;;13.80;;
20161;SDS011;51382;53.180;15.414;2024-01-30T04:29:50;179.60;;;24.20;;
20161;SDS011;51382;53.180;15.414;2024-01-30T04:45:02;51.10;;;14.30;;
20161;SDS011;51382;53.180;15.414;2024-01-30T05:00:15;61.90;;;16.60;;
20161;SDS011;51382;53.180;15.414;2024-01-30T05:15:26;46.60;;;13.40;;
20161;SDS011;51382;53.180;15.414;2024-01-30T05:30:37;52.00;;;13.40;;
20161;SDS011;51382;53.180;15.414;2024-01-30T05:45:49;59.50;;;15.90;;
20161;SDS011;51382;53.180;15.414;2024-01-30T06:01:00;78.90;;;22.00;;
20161;SDS011;51382;53.180;15.414;2024-01-30T06:16:12;137.60;;;39.80;;
20161;SDS011;51382;53.180;15.414;2024-01-30T06:31:23;86.00;;;25.90;;
20161;SDS011;51382;53.180;15.414;2024-01-30T06:46:34;97.60;;;28.20;;
20161;SDS011;51382;53.180;15.414;2024-01-30T07:01:42;67.30;;;24.30;;
20161;SDS011;51382;53.180;15.414;2024-01-30T07:16:53;79.50;;;22.80;;
20161;SDS011;51382;53.180;15.414;2024-01-30T07:32:06;72.40;;;22.70;;
20161;SDS011;51382;53.180;15.414;2024-01-30T07:47:17;57.10;;;16.30;;
20161;SDS011;51382;53.180;15.414;2024-01-30T08:02:29;61.60;;;19.20;;
20161;SDS011;51382;53.180;15.414;2024-01-30T08:17:40;97.50;;;36.50;;
20161;SDS011;51382;53.180;15.414;2024-01-30T08:32:51;122.20;;;59.10;;
20161;SDS011;51382;53.180;15.414;2024-01-30T08:48:03;87.00;;;34.30;;
20161;SDS011;51382;53.180;15.414;2024-01-30T09:03:16;93.50;;;28.90;;
20161;SDS011;51382;53.180;15.414;2024-01-30T09:18:27;176.30;;;35.30;;
20161;SDS011;51382;53.180;15.414;2024-01-30T09:33:39;81.20;;;27.80;;
20161;SDS011;51382;53.180;15.414;2024-01-30T09:48:51;149.80;;;28.60;;
20161;SDS011;51382;53.180;15.414;2024-01-30T10:03:58;45.20;;;15.00;;
20161;SDS011;51382;53.180;15.414;2024-01-30T10:19:05;69.70;;;17.70;;
20161;SDS011;51382;53.180;15.414;2024-01-30T10:34:17;52.70;;;16.40;;
20161;SDS011;51382;53.180;15.414;2024-01-30T10:49:29;57.30;;;16.20;;
20161;SDS011;51382;53.180;15.414;2024-01-30T11:04:42;65.80;;;16.10;;
20161;SDS011;51382;53.180;15.414;2024-01-30T11:19:55;67.60;;;20.20;;
20161;SDS011;51382;53.180;15.414;2024-01-30T11:35:10;75.90;;;24.30;;
20161;SDS011;51382;53.180;15.414;2024-01-30T11:50:22;108.70;;;33.10;;
20161;SDS011;51382;53.180;15.414;2024-01-30T12:05:33;88.30;;;20.20;;
20161;SDS011;51382;53.180;15.414;2024-01-30T12:20:47;97.50;;;25.80;;
20161;SDS011;51382;53.180;15.414;2024-01-30T12:36:08;73.00;;;18.10;;
20161;SDS011;51382;53.180;15.414;2024-01-30T12:51:15;73.50;;;20.70;;
20161;SDS011;51382;53.180;15.414;2024-01-30T13:06:26;104.70;;;25.30;;
20161;SDS011;51382;53.180;15.414;2024-01-30T13:21:37;93.60;;;26.30;;
20161;SDS011;51382;53.180;15.414;2024-01-30T13:36:49;64.80;;;18.30;;
20161;SDS011;51382;53.180;15.414;2024-01-30T13:52:00;66.80;;;18.10;;
20161;SDS011;51382;53.180;15.414;2024-01-30T14:07:14;74.70;;;15.50;;
20161;SDS011;51382;53.180;15.414;2024-01-30T14:22:28;63.70;;;17.40;;
20161;SDS011;51382;53.180;15.414;2024-01-30T14:37:39;112.40;;;40.80;;
20161;SDS011;51382;53.180;15.414;2024-01-30T14:52:51;79.70;;;21.90;;
20161;SDS011;51382;53.180;15.414;2024-01-30T15:08:03;92.60;;;26.00;;
20161;SDS011;51382;53.180;15.414;2024-01-30T15:23:15;79.30;;;24.20;;
20161;SDS011;51382;53.180;15.414;2024-01-30T15:38:26;94.60;;;29.30;;
20161;SDS011;51382;53.180;15.414;2024-01-30T15:53:33;120.00;;;36.50;;
20161;SDS011;51382;53.180;15.414;2024-01-30T16:08:46;246.40;;;107.00;;
20161;SDS011;51382;53.180;15.414;2024-01-30T16:23:59;199.30;;;93.50;;
20161;SDS011;51382;53.180;15.414;2024-01-30T16:39:10;172.50;;;60.90;;
20161;SDS011;51382;53.180;15.414;2024-01-30T16:54:24;164.80;;;75.50;;
20161;SDS011;51382;53.180;15.414;2024-01-30T17:09:36;112.10;;;45.70;;
20161;SDS011;51382;53.180;15.414;2024-01-30T17:24:47;80.60;;;26.70;;
20161;SDS011;51382;53.180;15.414;2024-01-30T17:39:58;62.20;;;23.80;;
20161;SDS011;51382;53.180;15.414;2024-01-30T17:55:14;93.20;;;31.00;;
20161;SDS011;51382;53.180;15.414;2024-01-30T18:10:26;144.20;;;62.50;;
20161;SDS011;51382;53.180;15.414;2024-01-30T18:25:40;108.00;;;47.20;;
20161;SDS011;51382;53.180;15.414;2024-01-30T18:40:52;83.10;;;30.20;;
20161;SDS011;51382;53.180;15.414;2024-01-30T18:56:06;63.10;;;22.40;;
20161;SDS011;51382;53.180;15.414;2024-01-30T19:11:21;193.20;;;70.10;;
20161;SDS011;51382;53.180;15.414;2024-01-30T19:26:32;139.50;;;61.20;;
20161;SDS011;51382;53.180;15.414;2024-01-30T19:41:47;213.50;;;87.70;;
20161;SDS011;51382;53.180;15.414;2024-01-30T19:56:58;169.90;;;68.90;;
20161;SDS011;51382;53.180;15.414;2024-01-30T20:12:10;92.80;;;32.10;;
20161;SDS011;51382;53.180;15.414;2024-01-30T20:27:22;83.00;;;23.60;;
20161;SDS011;51382;53.180;15.414;2024-01-30T20:42:34;67.30;;;15.60;;
20161;SDS011;51382;53.180;15.414;2024-01-30T20:57:46;59.40;;;13.90;;
20161;SDS011;51382;53.180;15.414;2024-01-30T21:12:57;59.70;;;15.10;;
20161;SDS011;51382;53.180;15.414;2024-01-30T21:28:09;67.40;;;17.50;;
20161;SDS011;51382;53.180;15.414;2024-01-30T21:43:21;73.80;;;21.40;;
20161;SDS011;51382;53.180;15.414;2024-01-30T21:58:32;65.70;;;17.60;;
20161;SDS011;51382;53.180;15.414;2024-01-30T22:13:44;72.60;;;20.00;;
20161;SDS011;51382;53.180;15.414;2024-01-30T22:28:56;74.30;;;18.20;;
20161;SDS011;51382;53.180;15.414;2024-01-30T22:44:07;81.90;;;23.30;;
20161;SDS011;51382;53.180;15.414;2024-01-30T22:59:18;72.10;;;19.80;;
20161;SDS011;51382;53.180;15.414;2024-01-30T23:14:30;63.30;;;16.60;;
20161;SDS011;51382;53.180;15.414;2024-01-30T23:29:43;55.00;;;15.40;;
20161;SDS011;51382;53.180;15.414;2024-01-30T23:44:55;71.60;;;16.20;;
